Time;durP1;ratioP1;P1;durP2;ratioP2;P2;SDS_P1;SDS_P2;PMS_P1;PMS_P2;Temp;Humidity;BMP_temperature;BMP_pressure;BME280_temperature;BME280_humidity;BME280_pressure;Samples;Min_cycle;Max_cycle;Signal;HPM_P1;HPM_P2
2023/01/17 00:01:44;;;;;;;2.90;1.90;;;5.50;99.90;;;;;;4954486;28;20186;-75
2023/01/17 00:09:57;;;;;;;4.13;2.10;;;5.50;99.90;;;;;;4954589;28;20535;-74
2023/01/17 00:12:30;;;;;;;2.23;1.67;;;5.50;99.90;;;;;;4955451;28;20425;-73
2023/01/17 00:14:57;;;;;;;2.50;1.80;;;5.60;99.90;;;;;;4950611;28;20442;-74
2023/01/17 00:17:25;;;;;;;3.13;2.00;;;5.70;99.90;;;;;;4951380;28;20469;-74
2023/01/17 01:35:20;;;;;;;2.70;1.97;;;5.40;99.90;;;;;;4953586;28;20460;-71
2023/01/17 01:37:46;;;;;;;7.13;2.30;;;5.40;99.90;;;;;;4948621;28;20466;-70
2023/01/17 01:40:12;;;;;;;5.10;2.07;;;5.30;99.90;;;;;;4953678;28;20461;-71
2023/01/17 01:42:47;;;;;;;4.43;2.30;;;5.40;99.90;;;;;;4953329;28;20234;-70
2023/01/17 01:45:22;;;;;;;4.33;2.00;;;5.30;99.90;;;;;;4953605;28;20437;-71
2023/01/17 01:47:50;;;;;;;3.40;2.00;;;5.30;99.90;;;;;;4952920;28;20448;-72
2023/01/17 01:50:18;;;;;;;3.27;2.00;;;5.40;99.90;;;;;;4950769;28;20638;-73
2023/01/17 01:52:47;;;;;;;7.00;2.57;;;5.40;99.90;;;;;;4948057;28;21484;-73
2023/01/17 01:55:17;;;;;;;3.30;2.27;;;5.40;99.90;;;;;;4950561;28;20437;-73
2023/01/17 01:57:47;;;;;;;4.07;2.47;;;5.50;99.90;;;;;;4949648;28;20804;-74
2023/01/17 02:00:17;;;;;;;3.53;2.00;;;5.60;99.90;;;;;;4948177;28;20609;-74
2023/01/17 02:02:46;;;;;;;2.77;2.33;;;5.70;99.90;;;;;;4954649;28;20434;-71
2023/01/17 02:05:15;;;;;;;3.40;1.83;;;5.60;99.90;;;;;;4956389;28;20410;-73
2023/01/17 02:07:49;;;;;;;3.73;2.30;;;5.70;99.90;;;;;;4954108;28;20453;-74
2023/01/17 02:10:15;;;;;;;2.67;1.73;;;5.70;99.90;;;;;;4957333;28;20968;-73
2023/01/17 02:12:41;;;;;;;3.07;2.20;;;5.70;99.90;;;;;;4955713;28;20444;-72
2023/01/17 02:15:07;;;;;;;4.13;2.73;;;5.60;99.90;;;;;;4952228;28;20197;-75
2023/01/17 02:17:33;;;;;;;3.60;2.27;;;5.60;99.90;;;;;;4955738;28;20552;-74
2023/01/17 02:20:20;;;;;;;4.43;2.33;;;5.50;99.90;;;;;;4957785;28;20585;-73
2023/01/17 02:23:12;;;;;;;3.17;2.30;;;5.50;99.90;;;;;;4953640;28;20190;-73
2023/01/17 02:25:50;;;;;;;4.80;2.40;;;5.60;99.90;;;;;;4966966;28;20435;-73
2023/01/17 02:28:34;;;;;;;3.10;2.00;;;5.60;99.90;;;;;;4951510;28;21134;-73
2023/01/17 02:31:09;;;;;;;4.37;2.00;;;5.60;99.90;;;;;;4956671;28;20492;-73
2023/01/17 02:33:35;;;;;;;4.20;2.50;;;5.60;99.90;;;;;;4957787;28;20493;-73
2023/01/17 02:36:13;;;;;;;4.20;2.67;;;5.60;99.90;;;;;;4956256;28;20592;-73
2023/01/17 02:38:51;;;;;;;3.10;1.93;;;5.60;99.90;;;;;;4951504;28;20266;-72
2023/01/17 02:41:28;;;;;;;3.17;2.20;;;5.50;99.90;;;;;;4955884;28;20505;-73
2023/01/17 02:43:54;;;;;;;3.03;2.20;;;5.50;99.90;;;;;;4968402;28;20551;-73
2023/01/17 02:46:20;;;;;;;3.63;1.93;;;5.50;99.90;;;;;;4958450;28;20440;-73
2023/01/17 02:48:46;;;;;;;2.33;2.03;;;5.50;99.90;;;;;;4952322;28;20881;-72
2023/01/17 02:51:24;;;;;;;4.73;2.53;;;5.50;99.90;;;;;;4954958;28;21009;-72
2023/01/17 02:54:15;;;;;;;7.60;3.00;;;5.50;99.90;;;;;;4951020;28;20556;-73
2023/01/17 02:56:56;;;;;;;4.40;2.07;;;5.40;99.90;;;;;;4955820;28;21012;-73
2023/01/17 02:59:39;;;;;;;3.40;1.83;;;5.40;99.90;;;;;;4951294;28;20415;-74
2023/01/17 03:02:16;;;;;;;3.67;2.33;;;5.40;99.90;;;;;;4958649;28;20505;-73
2023/01/17 03:04:50;;;;;;;2.80;2.00;;;5.40;99.90;;;;;;4967393;28;20500;-73
2023/01/17 03:07:20;;;;;;;2.50;2.10;;;5.40;99.90;;;;;;4961280;28;20433;-73
2023/01/17 03:09:52;;;;;;;5.33;3.60;;;5.50;99.90;;;;;;4955315;28;20469;-73
2023/01/17 03:12:19;;;;;;;7.10;2.13;;;5.40;99.90;;;;;;4954055;28;20820;-74
2023/01/17 03:14:45;;;;;;;4.53;3.30;;;5.40;99.90;;;;;;4957082;28;20454;-73
2023/01/17 03:17:10;;;;;;;3.63;2.57;;;5.50;99.90;;;;;;4956056;28;20533;-73
2023/01/17 03:19:36;;;;;;;2.73;2.03;;;5.60;99.90;;;;;;4954485;28;20728;-74
2023/01/17 03:22:02;;;;;;;3.43;1.97;;;5.60;99.90;;;;;;4954893;28;20175;-74
2023/01/17 03:24:27;;;;;;;2.40;1.87;;;5.60;99.90;;;;;;4957857;28;20250;-73
2023/01/17 03:26:53;;;;;;;4.10;1.90;;;5.60;99.90;;;;;;4952387;28;20187;-72
2023/01/17 03:29:18;;;;;;;2.80;1.97;;;5.60;99.90;;;;;;4952440;28;20187;-73
2023/01/17 03:31:45;;;;;;;3.23;2.00;;;5.60;99.90;;;;;;4951138;28;20195;-73
2023/01/17 03:34:11;;;;;;;3.00;2.13;;;5.60;99.90;;;;;;4951571;28;20252;-73
2023/01/17 03:36:36;;;;;;;2.20;1.60;;;5.60;99.90;;;;;;4956485;28;20462;-75
2023/01/17 03:39:02;;;;;;;2.13;1.80;;;5.70;99.90;;;;;;4953551;28;20182;-76
2023/01/17 03:41:28;;;;;;;10.23;2.30;;;5.60;99.90;;;;;;4955174;28;20203;-76
2023/01/17 03:43:54;;;;;;;3.53;1.87;;;5.60;99.90;;;;;;4951209;28;20197;-75
2023/01/17 03:46:22;;;;;;;2.67;1.63;;;5.60;99.90;;;;;;4953689;28;20449;-74
2023/01/17 03:48:48;;;;;;;2.83;1.53;;;5.70;99.90;;;;;;4951510;28;20194;-74
2023/01/17 03:51:14;;;;;;;2.90;1.90;;;5.60;99.90;;;;;;4952406;28;21314;-73
2023/01/17 03:53:40;;;;;;;2.50;1.83;;;5.60;99.90;;;;;;4950645;28;21036;-74
2023/01/17 03:56:06;;;;;;;4.23;1.50;;;5.70;99.90;;;;;;4953723;28;20473;-74
2023/01/17 03:58:32;;;;;;;2.40;1.70;;;5.80;99.90;;;;;;4952282;28;20449;-74
2023/01/17 04:00:57;;;;;;;2.50;1.80;;;5.70;99.90;;;;;;4950967;28;21743;-74
2023/01/17 04:03:23;;;;;;;2.17;1.80;;;5.70;99.90;;;;;;4952965;28;20183;-75
2023/01/17 04:05:48;;;;;;;2.30;1.80;;;5.70;99.90;;;;;;4950210;28;20186;-77
2023/01/17 04:08:14;;;;;;;3.40;2.00;;;5.70;99.90;;;;;;4952461;28;20186;-73
2023/01/17 04:10:40;;;;;;;3.53;2.17;;;5.60;99.90;;;;;;4951944;28;20215;-72
2023/01/17 04:13:05;;;;;;;2.40;1.83;;;5.50;99.90;;;;;;4946921;28;20562;-75
2023/01/17 04:15:32;;;;;;;3.10;2.10;;;5.50;99.90;;;;;;4950017;28;20205;-73
2023/01/17 04:17:58;;;;;;;2.70;1.70;;;5.40;99.90;;;;;;4944778;28;20182;-75
2023/01/17 04:20:37;;;;;;;2.60;1.90;;;5.30;99.90;;;;;;4950912;28;20464;-75
2023/01/17 04:23:03;;;;;;;5.00;2.00;;;5.30;99.90;;;;;;4950543;28;20499;-74
2023/01/17 04:25:29;;;;;;;3.10;2.00;;;5.30;99.90;;;;;;4952989;28;20444;-73
2023/01/17 04:27:56;;;;;;;3.83;2.00;;;5.30;99.90;;;;;;4948513;28;20889;-74
2023/01/17 04:30:22;;;;;;;3.03;1.73;;;5.40;99.90;;;;;;4951344;28;20473;-74
2023/01/17 04:32:48;;;;;;;2.80;1.70;;;5.40;99.90;;;;;;4949689;28;20441;-76
2023/01/17 04:35:16;;;;;;;2.80;1.87;;;5.40;99.90;;;;;;4952427;28;20195;-72
2023/01/17 04:37:41;;;;;;;4.80;1.93;;;5.30;99.90;;;;;;4953200;28;20189;-75
2023/01/17 04:40:08;;;;;;;3.10;2.20;;;5.40;99.90;;;;;;4966346;28;20473;-74
2023/01/17 04:42:34;;;;;;;3.93;1.80;;;5.50;99.90;;;;;;4951287;28;20241;-74
2023/01/17 04:44:59;;;;;;;3.17;2.00;;;5.50;99.90;;;;;;4950019;28;20499;-74
2023/01/17 04:47:25;;;;;;;4.53;1.93;;;5.50;99.90;;;;;;4951436;28;20186;-73
2023/01/17 04:49:51;;;;;;;4.97;2.23;;;5.50;99.90;;;;;;4948062;28;20234;-73
2023/01/17 04:52:18;;;;;;;3.27;2.30;;;5.40;99.90;;;;;;4948576;28;20186;-73
2023/01/17 04:54:44;;;;;;;3.23;2.37;;;5.40;99.90;;;;;;4949511;28;20217;-73
2023/01/17 04:57:11;;;;;;;2.83;2.37;;;5.40;99.90;;;;;;4949429;28;20481;-73
2023/01/17 04:59:36;;;;;;;4.40;2.13;;;5.50;99.90;;;;;;4947777;28;20461;-74
2023/01/17 05:02:05;;;;;;;3.67;2.50;;;5.60;99.90;;;;;;4951559;28;20188;-73
2023/01/17 05:04:30;;;;;;;2.53;2.17;;;5.50;99.90;;;;;;4952478;28;20185;-73
2023/01/17 05:06:56;;;;;;;2.53;2.33;;;5.50;99.90;;;;;;4952642;28;21199;-71
2023/01/17 05:09:22;;;;;;;3.27;2.40;;;5.50;99.90;;;;;;4950896;28;20190;-73
2023/01/17 05:11:47;;;;;;;3.50;2.30;;;5.50;99.90;;;;;;4948014;28;20193;-72
2023/01/17 05:14:13;;;;;;;5.43;2.50;;;5.50;99.90;;;;;;4948881;28;20198;-72
2023/01/17 05:16:38;;;;;;;3.50;2.23;;;5.40;99.90;;;;;;4951049;28;20233;-72
2023/01/17 05:19:04;;;;;;;2.67;1.90;;;5.30;99.90;;;;;;4951783;28;20182;-72
2023/01/17 05:21:30;;;;;;;3.30;2.53;;;5.30;99.90;;;;;;4952143;28;20578;-74
2023/01/17 05:23:55;;;;;;;3.00;2.30;;;5.30;99.90;;;;;;4948412;28;20170;-73
2023/01/17 05:26:21;;;;;;;2.67;2.17;;;5.30;99.90;;;;;;4954457;28;20448;-73
2023/01/17 05:28:47;;;;;;;4.40;2.53;;;5.30;99.90;;;;;;4948187;28;20558;-73
2023/01/17 05:31:12;;;;;;;3.50;2.00;;;5.30;99.90;;;;;;4952727;28;20253;-74
2023/01/17 05:33:38;;;;;;;3.13;2.17;;;5.30;99.90;;;;;;4950791;28;20191;-73
2023/01/17 05:36:04;;;;;;;4.73;2.10;;;5.40;99.90;;;;;;4950279;28;20218;-73
2023/01/17 05:38:29;;;;;;;3.00;2.27;;;5.40;99.90;;;;;;4947238;28;20186;-75
2023/01/17 05:40:59;;;;;;;3.50;2.43;;;5.40;99.90;;;;;;4948861;28;20230;-74
2023/01/17 05:43:24;;;;;;;3.33;2.40;;;5.50;99.90;;;;;;4951969;28;20244;-74
2023/01/17 05:45:50;;;;;;;4.47;2.20;;;5.50;99.90;;;;;;4947749;28;20445;-74
2023/01/17 05:48:16;;;;;;;4.73;3.10;;;5.60;99.90;;;;;;4952129;28;20214;-73
2023/01/17 05:50:41;;;;;;;4.00;2.80;;;5.60;99.90;;;;;;4949235;28;20202;-71
2023/01/17 05:53:10;;;;;;;4.40;2.13;;;5.60;99.90;;;;;;4947849;28;20202;-75
2023/01/17 05:55:37;;;;;;;3.70;2.40;;;5.60;99.90;;;;;;4949877;28;20210;-75
2023/01/17 05:58:04;;;;;;;5.63;2.53;;;5.70;99.90;;;;;;4949693;28;20475;-75
2023/01/17 06:00:30;;;;;;;3.23;2.40;;;5.70;99.90;;;;;;4953583;28;20488;-74
2023/01/17 06:02:57;;;;;;;5.63;2.43;;;5.80;99.90;;;;;;4950792;28;20457;-74
2023/01/17 06:05:24;;;;;;;2.73;2.37;;;5.80;99.90;;;;;;4950903;28;20429;-73
2023/01/17 06:07:50;;;;;;;3.20;2.47;;;5.80;99.90;;;;;;4946089;28;20484;-74
2023/01/17 06:10:19;;;;;;;3.93;2.23;;;5.80;99.90;;;;;;4951305;28;20548;-74
2023/01/17 06:12:46;;;;;;;4.57;2.80;;;5.80;99.90;;;;;;4948083;28;20453;-75
2023/01/17 06:15:14;;;;;;;3.10;2.23;;;5.80;99.90;;;;;;4948536;28;20594;-74
2023/01/17 06:17:40;;;;;;;2.80;2.00;;;5.80;99.90;;;;;;4948071;28;20473;-72
2023/01/17 06:20:07;;;;;;;2.67;2.40;;;5.80;99.90;;;;;;4951575;28;20465;-72
2023/01/17 06:22:33;;;;;;;2.87;2.10;;;5.80;99.90;;;;;;4947769;28;20855;-72
2023/01/17 06:24:59;;;;;;;4.60;2.87;;;5.90;99.90;;;;;;4947751;28;20435;-75
2023/01/17 06:27:25;;;;;;;3.87;2.40;;;5.80;99.90;;;;;;4948147;28;20496;-75
2023/01/17 06:29:51;;;;;;;4.17;2.30;;;5.90;99.90;;;;;;4950371;28;20465;-73
2023/01/17 06:32:16;;;;;;;5.80;2.70;;;5.90;99.90;;;;;;4953714;28;20441;-75
2023/01/17 06:34:42;;;;;;;3.30;2.43;;;5.90;99.90;;;;;;4952437;28;20290;-74
2023/01/17 06:37:08;;;;;;;4.63;2.40;;;5.90;99.90;;;;;;4950992;28;20211;-74
2023/01/17 06:39:33;;;;;;;3.67;2.73;;;5.90;99.90;;;;;;4955274;28;20666;-75
2023/01/17 06:41:59;;;;;;;4.27;2.63;;;5.90;99.90;;;;;;4953827;28;20426;-74
2023/01/17 06:44:25;;;;;;;3.80;2.60;;;5.90;99.90;;;;;;4953953;28;20233;-75
2023/01/17 06:46:51;;;;;;;5.37;2.97;;;5.90;99.90;;;;;;4951133;28;20662;-74
2023/01/17 06:49:17;;;;;;;4.23;2.80;;;5.90;99.90;;;;;;4949681;28;20209;-72
2023/01/17 06:51:43;;;;;;;3.73;3.10;;;6.00;99.90;;;;;;4950554;28;20532;-73
2023/01/17 06:54:09;;;;;;;7.07;2.70;;;6.00;99.90;;;;;;4953659;28;20299;-71
2023/01/17 06:56:35;;;;;;;3.90;2.47;;;6.00;99.90;;;;;;4954376;28;20213;-71
2023/01/17 06:59:01;;;;;;;6.67;3.33;;;6.00;99.90;;;;;;4953328;28;20915;-71
2023/01/17 07:01:27;;;;;;;6.97;2.97;;;6.10;99.90;;;;;;4954264;28;20637;-71
2023/01/17 07:03:52;;;;;;;3.80;2.60;;;6.10;99.90;;;;;;4952637;28;20516;-70
2023/01/17 07:06:19;;;;;;;7.60;2.80;;;6.10;99.90;;;;;;4953627;28;20194;-68
2023/01/17 07:08:46;;;;;;;6.30;3.20;;;6.10;99.90;;;;;;4951259;28;20785;-68
2023/01/17 07:11:12;;;;;;;6.13;2.60;;;6.10;99.90;;;;;;4949603;28;20457;-69
2023/01/17 07:13:38;;;;;;;5.67;3.10;;;6.10;99.90;;;;;;4955954;28;20874;-69
2023/01/17 07:16:05;;;;;;;4.47;3.27;;;6.20;99.90;;;;;;4943627;28;22136;-68
2023/01/17 07:18:32;;;;;;;5.27;2.70;;;6.20;99.90;;;;;;4950068;28;20470;-69
2023/01/17 07:20:58;;;;;;;4.87;2.97;;;6.20;99.90;;;;;;4933791;28;20465;-70
2023/01/17 07:23:24;;;;;;;3.80;3.07;;;6.20;99.90;;;;;;4947287;28;20426;-69
2023/01/17 07:25:51;;;;;;;5.47;4.23;;;6.20;99.90;;;;;;4952356;28;20182;-69
2023/01/17 07:28:16;;;;;;;5.17;3.40;;;6.20;99.90;;;;;;4951268;28;20468;-68
2023/01/17 07:30:43;;;;;;;6.07;3.37;;;6.20;99.90;;;;;;4946993;28;20454;-70
2023/01/17 07:33:08;;;;;;;4.90;2.50;;;6.20;99.90;;;;;;4947843;28;20195;-69
2023/01/17 07:35:35;;;;;;;5.83;3.23;;;6.30;99.90;;;;;;4953644;28;20445;-68
2023/01/17 07:38:01;;;;;;;9.70;2.80;;;6.30;99.90;;;;;;4949896;28;20578;-68
2023/01/17 07:40:27;;;;;;;5.03;3.27;;;6.30;99.90;;;;;;4955574;28;20474;-69
2023/01/17 07:42:58;;;;;;;2.93;2.37;;;6.30;99.90;;;;;;4951577;28;20419;-70
2023/01/17 07:45:24;;;;;;;3.63;2.40;;;6.30;99.90;;;;;;4954968;28;20194;-70
2023/01/17 07:47:50;;;;;;;4.33;2.50;;;6.30;99.90;;;;;;4952310;28;21139;-69
2023/01/17 07:50:15;;;;;;;3.73;2.80;;;6.30;99.90;;;;;;4955322;28;20289;-70
2023/01/17 07:52:41;;;;;;;3.67;2.40;;;6.30;99.90;;;;;;4953241;28;20183;-68
2023/01/17 07:55:07;;;;;;;5.90;3.10;;;6.30;99.90;;;;;;4945828;28;20183;-69
2023/01/17 07:57:33;;;;;;;5.50;3.10;;;6.30;99.90;;;;;;4943437;28;20280;-70
2023/01/17 07:59:58;;;;;;;3.53;2.30;;;6.30;99.90;;;;;;4950876;28;20556;-70
2023/01/17 08:02:24;;;;;;;4.27;2.80;;;6.30;99.90;;;;;;4950597;28;20274;-69
2023/01/17 08:04:50;;;;;;;4.30;2.80;;;6.30;99.90;;;;;;4948610;28;20674;-68
2023/01/17 08:07:16;;;;;;;5.93;2.73;;;6.30;99.90;;;;;;4951151;28;20193;-69
2023/01/17 08:09:43;;;;;;;5.50;2.80;;;6.30;99.90;;;;;;4951280;28;20256;-68
2023/01/17 08:12:09;;;;;;;5.13;2.90;;;6.30;99.90;;;;;;4949537;28;20500;-68
2023/01/17 08:14:35;;;;;;;4.70;3.20;;;6.30;99.90;;;;;;4949592;28;20442;-69
2023/01/17 08:17:05;;;;;;;4.47;2.80;;;6.30;99.90;;;;;;4950919;28;20992;-69
2023/01/17 08:19:31;;;;;;;7.13;2.60;;;6.30;99.90;;;;;;4951071;28;20507;-69
2023/01/17 08:21:57;;;;;;;3.47;2.67;;;6.30;99.90;;;;;;4948735;28;20489;-69
2023/01/17 08:24:22;;;;;;;7.30;3.57;;;6.30;99.90;;;;;;4950896;28;20200;-70
2023/01/17 08:26:48;;;;;;;5.07;2.57;;;6.20;99.90;;;;;;4950468;28;20187;-69
2023/01/17 08:29:14;;;;;;;4.17;2.70;;;6.30;99.90;;;;;;4950804;28;20966;-70
2023/01/17 08:31:39;;;;;;;3.83;2.73;;;6.30;99.90;;;;;;4953239;28;20189;-69
2023/01/17 08:34:05;;;;;;;4.10;2.70;;;6.30;99.90;;;;;;4951460;28;20190;-68
2023/01/17 08:36:31;;;;;;;5.03;3.20;;;6.30;99.90;;;;;;4953017;28;21025;-70
2023/01/17 08:38:57;;;;;;;4.87;3.43;;;6.30;99.90;;;;;;4948424;28;20221;-68
2023/01/17 08:41:23;;;;;;;7.77;3.80;;;6.30;99.90;;;;;;4956532;28;20326;-70
2023/01/17 08:43:50;;;;;;;4.53;3.10;;;6.30;99.90;;;;;;4951704;28;20461;-68
2023/01/17 08:46:16;;;;;;;7.90;3.33;;;6.40;99.90;;;;;;4956975;28;20438;-70
2023/01/17 08:48:42;;;;;;;4.60;3.30;;;6.50;99.90;;;;;;4952839;28;20442;-69
2023/01/17 08:51:09;;;;;;;6.00;2.97;;;6.50;99.90;;;;;;4954197;28;20893;-70
2023/01/17 08:53:34;;;;;;;8.07;3.83;;;6.60;99.90;;;;;;4947780;28;20423;-69
2023/01/17 08:56:01;;;;;;;6.70;2.87;;;6.60;99.90;;;;;;4952059;28;20473;-69
2023/01/17 08:58:28;;;;;;;4.03;3.27;;;6.70;99.90;;;;;;4949433;28;20282;-69
2023/01/17 09:00:58;;;;;;;8.43;4.53;;;6.70;99.90;;;;;;4952335;28;20880;-70
2023/01/17 09:03:23;;;;;;;3.60;2.90;;;6.80;99.90;;;;;;4954974;28;20449;-69
2023/01/17 09:05:49;;;;;;;6.10;2.80;;;6.80;99.90;;;;;;4953700;28;20446;-70
2023/01/17 09:08:14;;;;;;;5.23;2.87;;;6.90;99.90;;;;;;4954583;28;20250;-69
2023/01/17 09:10:40;;;;;;;8.13;3.30;;;6.90;99.90;;;;;;4958014;28;20288;-70
2023/01/17 09:13:06;;;;;;;4.70;2.27;;;7.00;99.90;;;;;;4950549;28;20193;-70
2023/01/17 09:15:31;;;;;;;3.20;2.30;;;7.00;99.90;;;;;;4954077;28;20221;-70
2023/01/17 09:17:57;;;;;;;3.13;2.37;;;7.00;99.90;;;;;;4950926;28;20430;-70
2023/01/17 09:20:28;;;;;;;4.07;2.43;;;7.10;99.90;;;;;;4958235;28;20546;-69
2023/01/17 09:22:54;;;;;;;3.80;2.60;;;7.00;99.90;;;;;;4952015;28;20777;-71
2023/01/17 09:25:21;;;;;;;4.70;2.73;;;7.00;99.90;;;;;;4955223;28;20430;-70
2023/01/17 09:27:46;;;;;;;7.30;3.07;;;7.00;99.90;;;;;;4954085;28;20185;-68
2023/01/17 09:30:12;;;;;;;4.47;2.20;;;6.90;99.90;;;;;;4951380;28;20450;-69
2023/01/17 09:32:38;;;;;;;4.23;2.30;;;6.90;99.90;;;;;;4953404;28;20191;-68
2023/01/17 09:35:06;;;;;;;3.10;2.23;;;6.80;99.90;;;;;;4947451;28;20457;-69
2023/01/17 09:37:31;;;;;;;4.23;2.20;;;6.90;99.90;;;;;;4955751;28;20217;-67
2023/01/17 09:39:57;;;;;;;4.70;2.50;;;6.90;99.90;;;;;;4948753;28;20454;-69
2023/01/17 09:42:50;;;;;;;5.10;3.17;;;6.90;99.90;;;;;;4951338;28;20178;-69
2023/01/17 09:45:17;;;;;;;4.10;3.07;;;6.90;99.90;;;;;;4952041;28;20202;-68
2023/01/17 09:47:52;;;;;;;4.60;2.40;;;6.90;99.90;;;;;;4949304;28;20529;-68
2023/01/17 09:50:32;;;;;;;3.83;2.60;;;7.00;99.90;;;;;;4959122;28;21133;-69
2023/01/17 09:53:03;;;;;;;5.40;2.43;;;7.00;99.90;;;;;;4954279;28;20416;-70
2023/01/17 09:55:38;;;;;;;6.53;2.70;;;7.00;99.90;;;;;;4960155;28;20441;-70
2023/01/17 09:58:41;;;;;;;4.60;2.60;;;7.00;99.90;;;;;;4953195;28;21149;-70
2023/01/17 10:01:25;;;;;;;5.60;3.10;;;7.10;99.90;;;;;;4954717;28;20469;-68
2023/01/17 10:04:05;;;;;;;6.10;2.97;;;7.10;99.90;;;;;;4950603;28;20440;-69
2023/01/17 10:06:41;;;;;;;4.70;3.00;;;7.20;99.90;;;;;;4959187;28;20433;-69
2023/01/17 10:09:33;;;;;;;4.97;2.90;;;7.20;99.90;;;;;;4956011;28;20555;-68
2023/01/17 10:12:21;;;;;;;6.20;3.10;;;7.30;99.90;;;;;;4952067;28;20485;-69
2023/01/17 10:15:08;;;;;;;4.87;3.13;;;7.30;99.90;;;;;;4951646;28;20518;-66
2023/01/17 10:17:53;;;;;;;3.60;2.40;;;7.30;99.90;;;;;;4956511;28;20502;-69
2023/01/17 10:20:43;;;;;;;3.50;2.33;;;7.30;99.90;;;;;;4970016;28;20516;-68
2023/01/17 10:23:32;;;;;;;3.23;2.40;;;7.40;99.90;;;;;;4953094;28;20438;-69
2023/01/17 10:26:05;;;;;;;4.83;2.97;;;7.40;99.90;;;;;;4959128;28;21246;-69
2023/01/17 10:28:49;;;;;;;4.27;3.07;;;7.40;99.90;;;;;;4953691;28;20422;-69
2023/01/17 10:31:25;;;;;;;6.10;2.40;;;7.40;99.90;;;;;;4956501;28;20465;-70
2023/01/17 10:33:56;;;;;;;5.43;2.67;;;7.50;99.90;;;;;;4953699;28;20441;-69
2023/01/17 10:36:25;;;;;;;3.23;1.97;;;7.50;99.90;;;;;;4957348;28;20560;-68
2023/01/17 10:38:54;;;;;;;4.00;2.17;;;7.50;99.90;;;;;;4950692;28;20442;-67
2023/01/17 10:41:27;;;;;;;4.70;2.10;;;7.50;99.90;;;;;;4954865;28;20826;-68
2023/01/17 10:44:35;;;;;;;3.37;2.10;;;7.50;99.90;;;;;;4948812;28;20735;-68
2023/01/17 10:47:09;;;;;;;3.70;2.70;;;7.60;99.90;;;;;;4936925;28;20533;-69
2023/01/17 10:49:42;;;;;;;5.77;2.43;;;7.60;99.90;;;;;;4954791;28;20492;-70
2023/01/17 10:52:54;;;;;;;3.50;2.30;;;7.60;99.90;;;;;;4950216;28;20422;-69
2023/01/17 10:56:01;;;;;;;3.10;2.77;;;7.60;99.90;;;;;;4953543;28;20470;-71
2023/01/17 10:58:27;;;;;;;3.37;2.37;;;7.60;99.90;;;;;;4948003;28;20972;-69
2023/01/17 11:01:01;;;;;;;3.20;2.27;;;7.70;99.90;;;;;;4952325;28;20497;-70
2023/01/17 11:03:27;;;;;;;3.87;2.50;;;7.70;99.90;;;;;;4955827;28;20325;-70
2023/01/17 11:06:22;;;;;;;3.77;2.60;;;7.80;99.90;;;;;;4954820;28;20964;-70
2023/01/17 11:08:59;;;;;;;2.43;2.10;;;7.90;99.90;;;;;;4959081;28;20445;-69
2023/01/17 11:11:33;;;;;;;3.53;2.20;;;8.00;99.90;;;;;;4962695;28;20468;-70
2023/01/17 11:14:01;;;;;;;4.17;2.90;;;8.00;99.90;;;;;;4953240;28;20850;-70
2023/01/17 11:16:30;;;;;;;7.90;3.47;;;8.10;99.90;;;;;;4958742;28;20887;-70
2023/01/17 11:19:24;;;;;;;5.20;3.10;;;8.20;99.90;;;;;;4952474;28;20438;-69
2023/01/17 11:21:57;;;;;;;6.13;2.80;;;8.30;99.90;;;;;;4951598;28;20418;-67
2023/01/17 11:24:34;;;;;;;3.83;2.60;;;8.50;99.90;;;;;;4950983;28;20439;-70
2023/01/17 11:27:03;;;;;;;3.93;2.70;;;8.60;99.90;;;;;;4954467;28;20444;-68
2023/01/17 11:29:35;;;;;;;4.77;3.03;;;8.70;99.90;;;;;;4954699;28;20463;-70
2023/01/17 11:32:30;;;;;;;4.70;2.83;;;8.70;99.90;;;;;;4952385;28;20431;-69
2023/01/17 11:35:05;;;;;;;7.53;2.50;;;8.80;99.90;;;;;;4953518;28;20446;-69
2023/01/17 11:37:32;;;;;;;5.93;2.50;;;8.80;99.90;;;;;;4951085;28;20469;-70
2023/01/17 11:40:14;;;;;;;5.47;2.03;;;8.90;99.90;;;;;;4953542;28;20565;-69
2023/01/17 11:42:40;;;;;;;3.20;2.47;;;9.00;99.90;;;;;;4949012;28;20798;-70
2023/01/17 11:45:24;;;;;;;4.90;2.77;;;9.10;99.90;;;;;;4954878;28;20454;-69
2023/01/17 11:48:11;;;;;;;6.57;4.40;;;9.20;99.90;;;;;;4955173;28;20554;-68
2023/01/17 11:50:57;;;;;;;3.40;2.60;;;9.30;99.90;;;;;;4952507;28;20509;-69
2023/01/17 11:53:35;;;;;;;3.40;2.70;;;9.30;99.90;;;;;;4952276;28;20422;-68
2023/01/17 11:56:19;;;;;;;3.40;2.47;;;9.30;99.90;;;;;;4949697;28;20465;-69
2023/01/17 11:58:46;;;;;;;3.27;2.07;;;9.40;99.90;;;;;;4950378;28;20524;-69
2023/01/17 12:01:26;;;;;;;3.90;2.27;;;9.60;99.90;;;;;;4954580;28;22042;-70
2023/01/17 12:04:09;;;;;;;2.63;2.20;;;9.70;99.90;;;;;;4951508;28;20442;-68
2023/01/17 12:06:48;;;;;;;4.10;2.50;;;9.80;99.90;;;;;;4951312;28;20474;-70
2023/01/17 12:09:26;;;;;;;3.33;2.50;;;10.00;99.90;;;;;;4955119;28;20541;-69
2023/01/17 12:15:10;;;;;;;4.80;2.50;;;10.30;99.90;;;;;;4956830;28;21001;-69
2023/01/17 12:17:52;;;;;;;3.80;2.10;;;10.40;99.90;;;;;;4950920;28;21001;-69
2023/01/17 12:20:37;;;;;;;3.50;2.13;;;10.50;99.90;;;;;;4954733;28;20462;-69
2023/01/17 12:23:21;;;;;;;2.63;2.20;;;10.70;99.90;;;;;;4951418;28;20477;-70
2023/01/17 12:26:18;;;;;;;4.17;2.60;;;11.00;99.90;;;;;;4955580;28;20484;-69
2023/01/17 12:29:08;;;;;;;3.43;2.23;;;11.40;99.90;;;;;;4958181;28;20425;-68
2023/01/17 12:31:50;;;;;;;3.40;2.07;;;11.90;99.90;;;;;;4952323;28;20449;-69
2023/01/17 12:34:42;;;;;;;2.30;1.97;;;12.20;99.90;;;;;;4946816;28;20449;-70
2023/01/17 12:37:18;;;;;;;3.30;2.00;;;12.20;99.90;;;;;;4952972;28;20560;-69
2023/01/17 12:40:10;;;;;;;5.20;3.03;;;12.40;99.90;;;;;;4951145;28;20552;-70
2023/01/17 12:42:40;;;;;;;7.60;3.10;;;12.30;99.90;;;;;;4927912;28;20562;-69
2023/01/17 12:45:12;;;;;;;6.40;4.37;;;12.00;99.90;;;;;;4950730;28;21077;-70
2023/01/17 12:47:47;;;;;;;3.20;2.60;;;11.80;99.90;;;;;;4947822;28;20458;-69
2023/01/17 12:50:36;;;;;;;4.60;2.30;;;11.70;99.90;;;;;;4952618;28;20453;-70
2023/01/17 12:53:13;;;;;;;2.77;2.40;;;11.70;99.90;;;;;;4946510;28;20426;-69
2023/01/17 12:55:45;;;;;;;2.40;1.93;;;12.50;99.90;;;;;;4949267;28;20841;-69
2023/01/17 12:58:24;;;;;;;4.33;3.03;;;13.00;99.90;;;;;;4945817;28;21598;-71
2023/01/17 13:01:03;;;;;;;3.50;3.20;;;12.90;99.00;;;;;;4949700;28;20457;-68
2023/01/17 13:03:55;;;;;;;2.27;2.00;;;12.60;98.10;;;;;;4951319;28;20423;-69
2023/01/17 13:06:30;;;;;;;3.10;2.40;;;12.20;96.60;;;;;;4948464;28;20540;-69
2023/01/17 13:09:02;;;;;;;4.40;2.80;;;12.00;96.40;;;;;;4949601;28;20444;-67
2023/01/17 13:11:42;;;;;;;2.70;2.00;;;11.70;95.00;;;;;;4948182;28;20536;-71
2023/01/17 13:14:09;;;;;;;4.70;2.50;;;11.50;95.70;;;;;;4947714;28;20457;-69
2023/01/17 13:16:47;;;;;;;2.27;2.00;;;11.30;95.80;;;;;;4950175;28;20492;-71
2023/01/17 13:19:27;;;;;;;2.30;1.90;;;11.10;95.60;;;;;;4947644;28;20488;-71
2023/01/17 13:21:55;;;;;;;2.27;1.90;;;11.00;96.40;;;;;;4950640;28;20884;-71
2023/01/17 13:24:34;;;;;;;2.50;1.63;;;10.80;96.20;;;;;;4948784;28;20465;-71
2023/01/17 13:27:28;;;;;;;3.07;2.03;;;10.70;95.90;;;;;;4948914;28;20431;-68
2023/01/17 13:30:10;;;;;;;3.93;2.30;;;10.50;96.30;;;;;;4945768;28;20845;-72
2023/01/17 13:32:47;;;;;;;2.73;2.07;;;10.30;95.50;;;;;;4937969;28;20449;-70
2023/01/17 13:35:21;;;;;;;2.87;2.00;;;10.30;96.40;;;;;;4950072;28;20505;-70
2023/01/17 13:38:14;;;;;;;4.37;2.13;;;10.20;96.60;;;;;;4948097;28;20474;-69
2023/01/17 13:40:51;;;;;;;2.80;2.10;;;10.00;95.30;;;;;;4952711;28;20454;-69
2023/01/17 13:44:20;;;;;;;2.80;2.00;;;10.00;96.00;;;;;;4952151;28;20418;-69
2023/01/17 13:47:06;;;;;;;3.17;2.30;;;9.90;97.30;;;;;;4952356;28;20469;-69
2023/01/17 13:49:39;;;;;;;3.63;2.80;;;9.80;97.00;;;;;;4957212;28;20489;-69
2023/01/17 13:52:11;;;;;;;5.80;2.13;;;9.70;97.40;;;;;;4952383;28;20499;-69
2023/01/17 13:54:45;;;;;;;2.80;2.10;;;9.60;96.80;;;;;;4957193;28;20532;-70
2023/01/17 13:57:24;;;;;;;7.07;2.73;;;9.60;97.20;;;;;;4954407;28;20580;-70
2023/01/17 13:59:57;;;;;;;2.43;2.20;;;9.40;97.40;;;;;;4965832;28;21557;-68
2023/01/17 14:02:32;;;;;;;4.40;2.40;;;9.50;97.30;;;;;;4955998;28;20453;-70
2023/01/17 14:05:12;;;;;;;5.50;2.63;;;9.40;97.20;;;;;;4954609;28;20469;-68
2023/01/17 14:07:59;;;;;;;3.90;2.10;;;9.30;97.30;;;;;;4948647;28;20429;-68
2023/01/17 14:10:25;;;;;;;4.80;2.63;;;9.30;97.50;;;;;;4951483;28;20469;-68
2023/01/17 14:12:50;;;;;;;7.03;2.30;;;9.30;97.40;;;;;;4955399;28;20440;-67
2023/01/17 14:15:22;;;;;;;2.77;1.90;;;9.20;96.70;;;;;;4948770;28;20213;-68
2023/01/17 14:17:58;;;;;;;6.83;2.53;;;9.10;97.20;;;;;;4957231;28;20270;-70
2023/01/17 14:20:24;;;;;;;3.70;2.40;;;9.10;97.20;;;;;;4970094;28;20466;-70
2023/01/17 14:23:19;;;;;;;4.90;2.30;;;9.10;96.90;;;;;;4958420;28;20778;-70
2023/01/17 14:25:44;;;;;;;2.93;2.13;;;9.10;97.40;;;;;;4964193;28;20677;-69
2023/01/17 14:28:28;;;;;;;2.83;1.83;;;9.00;96.20;;;;;;4957743;28;20457;-70
2023/01/17 14:30:55;;;;;;;3.90;2.10;;;9.00;96.90;;;;;;4960303;28;20190;-70
2023/01/17 14:33:33;;;;;;;3.63;2.40;;;9.00;96.60;;;;;;4957800;28;20441;-70
2023/01/17 14:36:26;;;;;;;2.93;1.80;;;8.90;96.40;;;;;;4956536;28;20477;-68
2023/01/17 14:38:52;;;;;;;3.77;2.40;;;8.90;96.70;;;;;;4956560;28;20434;-70
2023/01/17 14:41:27;;;;;;;4.33;2.60;;;8.90;96.60;;;;;;4957800;28;21121;-69
2023/01/17 14:43:54;;;;;;;2.70;1.90;;;8.90;96.70;;;;;;4949655;28;20197;-68